Time;durP1;ratioP1;P1;durP2;ratioP2;P2;SDS_P1;SDS_P2;PMS_P1;PMS_P2;Temp;Humidity;BMP_temperature;BMP_pressure;BME280_temperature;BME280_humidity;BME280_pressure;Samples;Min_cycle;Max_cycle;Signal;HPM_P1;HPM_P2
2024/02/26 00:00:32;;;;;;;72.80;42.97;;;;;;;7.83;100.00;99063.28;5104954;28;20045;-72
2024/02/26 00:02:57;;;;;;;85.40;48.25;;;;;;;7.80;100.00;99073.13;5106132;28;20434;-72
2024/02/26 00:05:23;;;;;;;69.13;43.63;;;;;;;7.80;100.00;99077.84;5092702;28;20035;-72
2024/02/26 00:07:49;;;;;;;79.32;44.30;;;;;;;7.56;100.00;99074.41;5073101;28;20505;-72
2024/02/26 00:10:14;;;;;;;74.90;45.33;;;;;;;7.39;100.00;99072.41;5073872;28;20126;-72
2024/02/26 00:12:40;;;;;;;79.07;43.35;;;;;;;7.41;100.00;99064.53;5092931;28;20016;-72
2024/02/26 00:15:06;;;;;;;85.65;48.90;;;;;;;7.35;100.00;99060.25;5092649;28;20028;-72
2024/02/26 00:17:32;;;;;;;75.82;46.20;;;;;;;7.33;100.00;99045.84;5093028;28;20408;-72
2024/02/26 00:19:57;;;;;;;71.07;43.53;;;;;;;7.45;100.00;99036.88;5079363;28;20027;-72
2024/02/26 00:22:23;;;;;;;74.82;42.03;;;;;;;7.44;100.00;99038.84;5113163;28;20027;-73
2024/02/26 00:24:48;;;;;;;78.43;43.10;;;;;;;7.71;100.00;99042.47;5100030;28;20085;-72
2024/02/26 00:27:14;;;;;;;74.95;42.92;;;;;;;7.85;100.00;99047.88;5074457;28;20035;-72
2024/02/26 00:29:39;;;;;;;76.90;42.47;;;;;;;7.98;100.00;99042.47;5079524;28;20115;-72
2024/02/26 00:32:05;;;;;;;69.28;42.55;;;;;;;7.99;100.00;99033.81;5092685;28;20020;-72
2024/02/26 00:34:31;;;;;;;77.75;43.97;;;;;;;8.09;100.00;99040.19;5074236;28;20031;-72
2024/02/26 00:36:56;;;;;;;68.78;40.75;;;;;;;8.08;100.00;99072.78;5074324;28;20543;-72
2024/02/26 00:39:22;;;;;;;71.32;41.20;;;;;;;8.05;100.00;99053.97;5101675;28;20023;-72
2024/02/26 00:41:47;;;;;;;68.60;43.53;;;;;;;7.75;100.00;99048.22;5092469;28;20027;-72
2024/02/26 00:44:13;;;;;;;84.80;45.30;;;;;;;7.72;100.00;99038.56;5074165;28;20039;-72
2024/02/26 00:46:38;;;;;;;74.57;44.15;;;;;;;7.55;100.00;99039.38;5092644;28;20502;-72
2024/02/26 00:49:03;;;;;;;72.70;42.25;;;;;;;7.54;100.00;99025.75;5082475;28;20088;-72
2024/02/26 00:51:29;;;;;;;73.40;42.35;;;;;;;7.68;100.00;99015.28;5105427;28;20042;-72
2024/02/26 00:53:55;;;;;;;67.22;39.33;;;;;;;7.77;100.00;99017.25;5093713;28;20077;-72
2024/02/26 00:56:21;;;;;;;64.35;35.65;;;;;;;7.91;100.00;99040.19;5112306;28;20027;-72
2024/02/26 00:58:47;;;;;;;64.05;35.83;;;;;;;8.12;100.00;99061.81;5108085;28;20094;-72
2024/02/26 01:01:13;;;;;;;67.03;38.38;;;;;;;8.04;100.00;99071.81;5097159;28;20446;-72
2024/02/26 01:03:38;;;;;;;62.80;37.28;;;;;;;8.15;100.00;99047.22;5090935;28;20032;-73
2024/02/26 01:06:04;;;;;;;63.95;37.40;;;;;;;8.32;100.00;99038.03;5092070;28;20089;-72
2024/02/26 01:08:29;;;;;;;69.15;36.50;;;;;;;8.34;100.00;99032.13;5091461;28;20055;-73
2024/02/26 01:10:55;;;;;;;60.95;34.42;;;;;;;8.18;100.00;99026.25;5112209;28;20028;-72
2024/02/26 01:13:20;;;;;;;59.45;33.97;;;;;;;8.17;100.00;99010.69;5111418;28;20043;-72
2024/02/26 01:15:46;;;;;;;59.58;31.70;;;;;;;8.21;100.00;99006.91;5091646;28;20024;-72
2024/02/26 01:18:12;;;;;;;45.55;28.17;;;;;;;8.31;100.00;99013.28;5091548;28;20486;-72
2024/02/26 01:20:37;;;;;;;56.03;29.65;;;;;;;8.45;100.00;99025.06;5099265;28;20031;-72
2024/02/26 01:23:03;;;;;;;53.80;30.63;;;;;;;8.42;100.00;99008.97;5112163;28;20024;-72
2024/02/26 01:25:28;;;;;;;52.38;31.25;;;;;;;8.63;100.00;99019.47;5094144;28;20031;-72
2024/02/26 01:27:54;;;;;;;55.95;31.58;;;;;;;8.64;100.00;99010.78;5091918;28;20396;-72
2024/02/26 01:30:20;;;;;;;48.13;28.77;;;;;;;8.74;100.00;99012.38;5091473;28;20436;-73
2024/02/26 01:32:45;;;;;;;49.45;30.65;;;;;;;8.87;100.00;99020.84;5091448;28;20103;-72
2024/02/26 01:35:11;;;;;;;47.65;27.52;;;;;;;8.94;100.00;99018.38;5106237;28;20114;-73
2024/02/26 01:37:37;;;;;;;51.67;28.17;;;;;;;8.95;100.00;99023.59;5092639;28;20027;-73
2024/02/26 01:40:06;;;;;;;53.63;29.92;;;;;;;8.95;100.00;99009.66;5081936;28;20020;-72
2024/02/26 01:42:32;;;;;;;50.58;30.33;;;;;;;8.78;100.00;99016.13;5072973;28;20473;-73
2024/02/26 01:44:59;;;;;;;54.65;32.13;;;;;;;8.97;100.00;99009.31;5091126;28;20115;-73
2024/02/26 01:47:26;;;;;;;56.60;31.75;;;;;;;9.09;100.00;99012.22;5091429;28;20107;-73
2024/02/26 01:49:53;;;;;;;50.10;30.65;;;;;;;9.14;100.00;99005.63;5090679;28;20019;-73
2024/02/26 01:52:19;;;;;;;50.05;31.65;;;;;;;9.19;100.00;99001.81;5092659;28;20024;-73
2024/02/26 01:54:45;;;;;;;59.22;33.90;;;;;;;9.33;100.00;99010.75;5099628;28;20020;-73
2024/02/26 01:57:12;;;;;;;53.20;31.20;;;;;;;9.39;100.00;99006.59;5108835;28;20089;-73
2024/02/26 01:59:40;;;;;;;51.30;30.48;;;;;;;9.35;100.00;98999.25;5090839;28;20156;-73
2024/02/26 02:02:08;;;;;;;55.78;30.48;;;;;;;9.38;100.00;98991.00;5090876;28;20016;-73
2024/02/26 02:04:35;;;;;;;52.63;33.30;;;;;;;9.31;100.00;98987.13;5099448;28;20467;-73
2024/02/26 02:07:01;;;;;;;49.78;31.48;;;;;;;8.95;100.00;98992.09;5110411;28;20111;-73
2024/02/26 02:09:27;;;;;;;54.80;30.35;;;;;;;9.21;100.00;98988.34;5102203;28;20090;-73
2024/02/26 02:11:53;;;;;;;44.53;29.50;;;;;;;9.21;100.00;98994.72;5090596;28;20035;-73
2024/02/26 02:14:19;;;;;;;52.95;28.13;;;;;;;9.39;100.00;99001.03;5091296;28;20024;-73
2024/02/26 02:16:44;;;;;;;47.45;28.60;;;;;;;9.45;100.00;99000.84;5092635;28;20028;-73
2024/02/26 02:19:10;;;;;;;45.30;29.33;;;;;;;9.48;100.00;98992.59;5104068;28;20020;-73
2024/02/26 02:21:35;;;;;;;46.10;28.70;;;;;;;9.27;100.00;98984.19;5085808;28;20514;-73
2024/02/26 02:24:00;;;;;;;49.67;29.33;;;;;;;9.48;100.00;98989.00;5088489;28;20016;-73
2024/02/26 02:26:26;;;;;;;48.60;30.17;;;;;;;9.48;100.00;98984.25;5072208;28;20115;-73
2024/02/26 02:28:53;;;;;;;46.60;28.80;;;;;;;9.43;100.00;98990.00;5090336;28;20020;-73
2024/02/26 02:31:19;;;;;;;48.30;30.65;;;;;;;9.27;100.00;98992.56;5089370;28;20039;-73
2024/02/26 02:33:45;;;;;;;43.50;28.48;;;;;;;9.37;100.00;98983.81;5092004;28;20396;-73
2024/02/26 02:36:11;;;;;;;57.92;31.45;;;;;;;9.43;100.00;98986.41;5092364;28;20028;-73
2024/02/26 02:38:37;;;;;;;48.78;31.02;;;;;;;9.55;100.00;98989.28;5108226;28;20412;-73
2024/02/26 02:41:03;;;;;;;55.30;31.25;;;;;;;9.49;100.00;98987.81;5071850;28;20036;-73
2024/02/26 02:43:28;;;;;;;50.50;30.58;;;;;;;9.51;100.00;98996.69;5090297;28;20093;-73
2024/02/26 02:45:54;;;;;;;56.00;33.80;;;;;;;9.46;100.00;98994.91;5090217;28;20085;-75
2024/02/26 02:48:19;;;;;;;58.15;34.10;;;;;;;9.22;100.00;99003.94;5104350;28;20024;-75
2024/02/26 02:50:45;;;;;;;61.67;35.65;;;;;;;9.01;100.00;99003.91;5090300;28;20016;-75
2024/02/26 02:53:10;;;;;;;60.78;35.00;;;;;;;9.13;100.00;98999.22;5091392;28;20676;-75
2024/02/26 02:55:36;;;;;;;57.65;35.42;;;;;;;9.19;100.00;98999.03;5088042;28;20028;-75
2024/02/26 02:58:01;;;;;;;52.97;33.17;;;;;;;9.18;100.00;98991.81;5071660;28;20059;-75
2024/02/26 03:00:27;;;;;;;55.67;34.28;;;;;;;9.12;100.00;98991.19;5071741;28;20031;-76
2024/02/26 03:02:52;;;;;;;61.33;36.55;;;;;;;9.13;100.00;99001.19;5101961;28;20058;-75
2024/02/26 03:05:18;;;;;;;54.15;33.80;;;;;;;9.22;100.00;98984.41;5091407;28;20446;-75
2024/02/26 03:07:43;;;;;;;56.80;33.90;;;;;;;9.30;100.00;98991.91;5091746;28;20023;-75
2024/02/26 03:10:09;;;;;;;53.88;33.20;;;;;;;9.35;100.00;98996.44;5087794;28;20413;-75
2024/02/26 03:12:34;;;;;;;54.83;33.83;;;;;;;9.38;100.00;99004.16;5092244;28;20028;-75
2024/02/26 03:15:04;;;;;;;59.80;36.00;;;;;;;9.40;100.00;98999.88;5096571;28;20580;-76
2024/02/26 03:17:30;;;;;;;55.80;35.08;;;;;;;9.45;100.00;99003.63;5071845;28;20461;-76
2024/02/26 03:19:55;;;;;;;57.33;34.22;;;;;;;9.23;100.00;98992.44;5089319;28;20124;-75
2024/02/26 03:22:21;;;;;;;54.22;34.80;;;;;;;9.36;100.00;99003.69;5109750;28;20484;-75
2024/02/26 03:24:47;;;;;;;55.75;32.47;;;;;;;9.39;100.00;99003.81;5091031;28;20031;-76
2024/02/26 03:27:13;;;;;;;56.00;36.33;;;;;;;8.43;100.00;98993.91;5110097;28;20020;-75
2024/02/26 03:29:38;;;;;;;76.03;37.35;;;;;;;8.25;100.00;98998.69;5099146;28;20520;-75
2024/02/26 03:32:07;;;;;;;60.42;37.38;;;;;;;8.60;100.00;98989.47;5073819;28;20016;-75
2024/02/26 03:34:36;;;;;;;68.53;39.30;;;;;;;8.42;100.00;98995.88;5083707;28;20024;-75
2024/02/26 03:37:04;;;;;;;64.18;40.80;;;;;;;8.36;100.00;98999.19;5089684;28;20023;-75
2024/02/26 03:39:29;;;;;;;70.57;40.63;;;;;;;8.55;100.00;98998.81;5089268;28;20035;-75
2024/02/26 03:41:55;;;;;;;63.00;40.33;;;;;;;8.21;100.00;98998.56;5099328;28;20027;-75
2024/02/26 03:44:20;;;;;;;72.05;41.53;;;;;;;8.00;100.00;98999.25;5087607;28;20032;-75
2024/02/26 03:46:46;;;;;;;78.28;44.03;;;;;;;8.30;100.00;99001.31;5075388;28;20032;-75
2024/02/26 03:49:11;;;;;;;65.85;40.88;;;;;;;8.05;100.00;98995.47;5098816;28;20027;-75
2024/02/26 03:51:37;;;;;;;61.00;36.85;;;;;;;8.10;100.00;99008.41;5113145;28;20031;-74
2024/02/26 03:54:02;;;;;;;59.88;35.92;;;;;;;8.27;100.00;99013.94;5108307;28;20031;-73
2024/02/26 03:56:28;;;;;;;66.38;37.72;;;;;;;8.19;100.00;99014.75;5093255;28;20020;-75
2024/02/26 03:58:53;;;;;;;61.40;36.50;;;;;;;7.96;100.00;99005.78;5092745;28;20048;-75
2024/02/26 04:01:19;;;;;;;62.05;36.45;;;;;;;8.08;100.00;99007.91;5075011;28;20028;-75
2024/02/26 04:03:44;;;;;;;63.38;35.33;;;;;;;8.08;100.00;98994.81;5096533;28;20106;-75
2024/02/26 04:06:11;;;;;;;61.85;34.45;;;;;;;7.61;100.00;98989.94;5107992;28;20027;-75
2024/02/26 04:08:37;;;;;;;53.90;33.88;;;;;;;7.83;100.00;99010.38;5111799;28;20020;-74
2024/02/26 04:11:07;;;;;;;60.20;34.17;;;;;;;7.85;100.00;99024.81;5107607;28;20069;-75
2024/02/26 04:13:35;;;;;;;51.08;31.75;;;;;;;7.88;100.00;99024.16;5093342;28;20076;-75
2024/02/26 04:16:02;;;;;;;53.53;30.73;;;;;;;8.12;100.00;99037.56;5092856;28;20028;-75
2024/02/26 04:18:28;;;;;;;46.78;26.98;;;;;;;7.93;100.00;99023.97;5074418;28;20038;-74
2024/02/26 04:20:54;;;;;;;42.30;27.05;;;;;;;7.82;100.00;99014.31;5081951;28;20035;-75
2024/02/26 04:23:20;;;;;;;52.25;32.08;;;;;;;8.01;100.00;99020.38;5113278;28;20157;-75
2024/02/26 04:25:45;;;;;;;53.50;31.05;;;;;;;8.20;100.00;99035.91;5094144;28;20110;-75
2024/02/26 04:28:11;;;;;;;49.25;28.48;;;;;;;8.19;100.00;99037.06;5113238;28;20046;-75
2024/02/26 04:30:37;;;;;;;60.75;33.67;;;;;;;8.24;100.00;99033.28;5091996;28;20035;-75
2024/02/26 04:33:02;;;;;;;47.58;30.05;;;;;;;8.07;100.00;99015.44;5091748;28;20028;-74
2024/02/26 04:35:28;;;;;;;48.60;31.80;;;;;;;7.92;100.00;99008.41;5103213;28;20103;-75
2024/02/26 04:37:53;;;;;;;44.70;27.52;;;;;;;8.19;100.00;99013.97;5112440;28;20106;-75
2024/02/26 04:40:18;;;;;;;49.85;30.35;;;;;;;8.36;100.00;99021.47;5109609;28;20488;-75
2024/02/26 04:42:44;;;;;;;45.45;29.45;;;;;;;8.39;100.00;99026.38;5094615;28;20019;-75
2024/02/26 04:45:09;;;;;;;52.13;30.33;;;;;;;8.48;100.00;99023.56;5097586;28;20058;-75
2024/02/26 04:47:35;;;;;;;49.47;27.70;;;;;;;8.57;100.00;99027.19;5092382;28;20051;-75
2024/02/26 04:50:00;;;;;;;47.65;29.25;;;;;;;8.51;100.00;99018.19;5091903;28;20073;-73
2024/02/26 04:52:26;;;;;;;42.10;25.90;;;;;;;8.47;100.00;99019.97;5093702;28;20531;-75
2024/02/26 04:54:51;;;;;;;43.15;24.90;;;;;;;8.48;100.00;99013.25;5098978;28;20412;-75
2024/02/26 04:57:18;;;;;;;33.38;22.63;;;;;;;8.39;100.00;99009.66;5092085;28;20052;-75
2024/02/26 04:59:45;;;;;;;38.00;22.75;;;;;;;8.45;100.00;99016.69;5093872;28;20051;-75
2024/02/26 05:02:11;;;;;;;32.90;21.80;;;;;;;8.21;100.00;99018.06;5073830;28;20110;-75
2024/02/26 05:04:37;;;;;;;32.00;19.65;;;;;;;8.12;100.00;99018.06;5093912;28;20482;-72
2024/02/26 05:07:05;;;;;;;35.55;22.17;;;;;;;8.28;100.00;99020.34;5112545;28;20092;-72
2024/02/26 05:09:31;;;;;;;40.83;22.40;;;;;;;8.22;100.00;99025.28;5107782;28;20024;-72
2024/02/26 05:11:57;;;;;;;40.67;23.92;;;;;;;8.12;100.00;99022.81;5111681;28;20024;-72
2024/02/26 05:14:22;;;;;;;37.53;23.27;;;;;;;8.07;100.00;99026.59;5089729;28;20161;-72
2024/02/26 05:16:48;;;;;;;36.05;22.70;;;;;;;8.04;100.00;99034.78;5091769;28;20024;-72
2024/02/26 05:19:14;;;;;;;43.33;30.20;;;;;;;8.13;100.00;99038.38;5096953;28;20094;-72
2024/02/26 05:21:40;;;;;;;82.07;42.10;;;;;;;8.20;100.00;99043.47;5111372;28;20050;-72
2024/02/26 05:24:06;;;;;;;88.07;52.45;;;;;;;8.37;100.00;99049.00;5107886;28;20028;-72
2024/02/26 05:26:31;;;;;;;80.38;50.08;;;;;;;8.48;100.00;99038.31;5092630;28;20057;-72
2024/02/26 05:28:59;;;;;;;80.95;48.15;;;;;;;8.58;100.00;99048.34;5107255;28;20027;-72
2024/02/26 05:31:26;;;;;;;84.40;47.17;;;;;;;8.52;100.00;99046.88;5091383;28;20046;-72
2024/02/26 05:33:51;;;;;;;57.53;35.50;;;;;;;8.43;100.00;99038.50;5091587;28;20024;-72
2024/02/26 05:36:22;;;;;;;63.83;36.45;;;;;;;8.62;100.00;99057.66;5094842;28;20515;-72
2024/02/26 05:38:47;;;;;;;;;;;;;;;8.55;100.00;99060.94;5090076;28;20061;-68
2024/02/26 05:41:15;;;;;;;56.83;37.42;;;;;;;8.47;100.00;99056.22;5111320;28;20368;-72
2024/02/26 05:43:40;;;;;;;70.15;43.13;;;;;;;8.45;100.00;99055.72;5089739;28;20074;-72
2024/02/26 05:46:06;;;;;;;72.60;43.75;;;;;;;8.18;100.00;99054.91;5091437;28;20028;-73
2024/02/26 05:48:32;;;;;;;76.10;45.28;;;;;;;8.31;100.00;99060.63;5097833;28;20015;-72
2024/02/26 05:50:57;;;;;;;74.72;43.10;;;;;;;8.38;100.00;99066.53;5092287;28;20028;-81
2024/02/26 05:53:22;;;;;;;68.05;41.53;;;;;;;8.36;100.00;99066.06;5111220;28;20558;-75
2024/02/26 05:55:48;;;;;;;70.90;42.90;;;;;;;8.37;100.00;99076.84;5091073;28;20024;-75
2024/02/26 05:58:14;;;;;;;71.88;40.30;;;;;;;8.35;100.00;99073.59;5094934;28;20039;-74
2024/02/26 06:00:39;;;;;;;66.80;38.60;;;;;;;8.45;100.00;99074.41;5090801;28;20050;-76
2024/02/26 06:03:05;;;;;;;70.05;41.30;;;;;;;8.42;100.00;99059.16;5110214;28;20538;-73
2024/02/26 06:05:30;;;;;;;69.70;42.05;;;;;;;8.40;100.00;99072.59;5108580;28;20131;-74
2024/02/26 06:07:55;;;;;;;82.30;45.00;;;;;;;8.40;100.00;99078.19;5112364;28;20028;-73
2024/02/26 06:10:21;;;;;;;80.10;45.08;;;;;;;8.49;100.00;99076.19;5090537;28;20027;-72
2024/02/26 06:12:47;;;;;;;72.18;41.22;;;;;;;8.47;100.00;99077.66;5092778;28;20408;-73
2024/02/26 06:15:12;;;;;;;80.63;46.83;;;;;;;8.50;100.00;99069.50;5088166;28;20154;-73
2024/02/26 06:17:38;;;;;;;65.72;40.60;;;;;;;8.27;100.00;99083.59;5109034;28;20460;-75
2024/02/26 06:20:06;;;;;;;69.55;40.40;;;;;;;8.16;100.00;99085.06;5083014;28;20043;-76
2024/02/26 06:22:31;;;;;;;56.38;36.95;;;;;;;8.38;100.00;99097.19;5092469;28;20019;-76
2024/02/26 06:24:57;;;;;;;56.78;34.17;;;;;;;8.40;100.00;99095.72;5086920;28;20059;-73
2024/02/26 06:27:23;;;;;;;46.60;29.20;;;;;;;8.54;100.00;99103.91;5106790;28;20040;-71
2024/02/26 06:29:49;;;;;;;40.25;25.92;;;;;;;8.59;100.00;99104.91;5106982;28;20038;-73
2024/02/26 06:32:14;;;;;;;36.97;25.20;;;;;;;8.38;100.00;99111.13;5096209;28;20477;-73
2024/02/26 06:34:41;;;;;;;47.65;27.92;;;;;;;8.17;100.00;99114.56;5102584;28;20034;-73
2024/02/26 06:37:08;;;;;;;42.78;26.75;;;;;;;8.08;100.00;99110.97;5109182;28;20442;-74
2024/02/26 06:39:33;;;;;;;50.03;30.50;;;;;;;8.20;100.00;99101.97;5108684;28;20027;-75
2024/02/26 06:42:02;;;;;;;49.05;28.88;;;;;;;8.43;100.00;99116.53;5103737;28;20553;-75
2024/02/26 06:44:33;;;;;;;51.78;29.92;;;;;;;8.57;100.00;99113.59;5104444;28;20023;-74
2024/02/26 06:47:00;;;;;;;57.10;33.80;;;;;;;8.52;100.00;99114.59;5084698;28;20023;-74
2024/02/26 06:49:26;;;;;;;78.18;39.90;;;;;;;8.59;100.00;99124.44;5099916;28;20027;-74
2024/02/26 06:51:51;;;;;;;61.72;36.20;;;;;;;8.55;100.00;99119.50;5100257;28;20810;-74
2024/02/26 06:54:17;;;;;;;68.45;39.08;;;;;;;8.39;100.00;99115.56;5100990;28;20039;-73
2024/02/26 06:56:42;;;;;;;83.22;48.45;;;;;;;8.42;100.00;99117.69;5106681;28;20027;-74
2024/02/26 06:59:08;;;;;;;93.55;55.63;;;;;;;8.17;100.00;99111.00;5079177;28;20040;-74
2024/02/26 07:01:33;;;;;;;91.82;52.30;;;;;;;8.04;100.00;99115.56;5092215;28;20024;-73
2024/02/26 07:03:58;;;;;;;116.75;63.28;;;;;;;8.22;100.00;99119.16;5081086;28;20508;-73
2024/02/26 07:06:24;;;;;;;91.95;50.85;;;;;;;8.39;100.00;99121.97;5097880;28;20497;-73
2024/02/26 07:08:49;;;;;;;77.38;44.85;;;;;;;8.41;100.00;99113.25;5098991;28;20519;-73
2024/02/26 07:11:15;;;;;;;88.05;41.72;;;;;;;8.49;100.00;99119.97;5091368;28;20392;-71
2024/02/26 07:13:40;;;;;;;53.70;32.85;;;;;;;8.63;100.00;99120.66;5091533;28;20469;-71
2024/02/26 07:16:06;;;;;;;50.30;32.20;;;;;;;8.78;100.00;99121.28;5102517;28;20466;-73
2024/02/26 07:18:31;;;;;;;51.20;29.15;;;;;;;8.81;100.00;99118.66;5098415;28;20420;-73
2024/02/26 07:20:57;;;;;;;47.35;29.30;;;;;;;8.88;100.00;99120.09;5088722;28;20105;-74
2024/02/26 07:23:22;;;;;;;65.05;37.80;;;;;;;8.68;100.00;99120.47;5107747;28;20251;-73
2024/02/26 07:25:49;;;;;;;78.03;42.20;;;;;;;9.06;100.00;99127.28;5106096;28;20035;-74
2024/02/26 07:28:15;;;;;;;74.72;39.53;;;;;;;9.22;100.00;99129.50;5092945;28;20443;-72
2024/02/26 07:30:40;;;;;;;80.50;47.05;;;;;;;9.39;100.00;99128.63;5093419;28;20062;-77
2024/02/26 07:33:06;;;;;;;73.30;42.20;;;;;;;9.43;100.00;99132.38;5104063;28;20028;-74
2024/02/26 07:35:33;;;;;;;81.40;41.20;;;;;;;9.37;100.00;99120.56;5106079;28;20628;-73
2024/02/26 07:37:58;;;;;;;63.45;37.78;;;;;;;9.11;100.00;99126.25;5107354;28;20081;-74
2024/02/26 07:40:24;;;;;;;60.22;37.85;;;;;;;9.30;100.00;99120.28;5106092;28;20036;-76
2024/02/26 07:42:49;;;;;;;58.05;38.17;;;;;;;9.37;100.00;99122.56;5089829;28;20030;-75
2024/02/26 07:45:15;;;;;;;55.72;35.95;;;;;;;9.62;100.00;99112.41;5090478;28;20023;-73
2024/02/26 07:47:41;;;;;;;68.63;38.33;;;;;;;9.64;100.00;99120.44;5107723;28;20053;-73
2024/02/26 07:50:08;;;;;;;55.75;36.30;;;;;;;9.68;100.00;99124.19;5112432;28;20031;-72
2024/02/26 07:52:34;;;;;;;56.47;38.05;;;;;;;9.32;100.00;99114.34;5113113;28;20020;-73
2024/02/26 07:54:59;;;;;;;67.80;37.35;;;;;;;9.43;100.00;99129.56;5112638;28;20034;-73
2024/02/26 07:57:25;;;;;;;53.03;34.65;;;;;;;9.21;100.00;99134.25;5086803;28;20516;-73
2024/02/26 07:59:50;;;;;;;54.60;35.47;;;;;;;9.36;100.00;99123.72;5094483;28;20456;-73
2024/02/26 08:02:16;;;;;;;56.13;37.85;;;;;;;9.54;100.00;99124.44;5086833;28;20023;-72
2024/02/26 08:04:42;;;;;;;63.08;39.33;;;;;;;9.64;100.00;99123.25;5090813;28;20122;-68
2024/02/26 08:07:07;;;;;;;57.35;37.63;;;;;;;9.33;100.00;99104.84;5102960;28;20101;-70
2024/02/26 08:09:33;;;;;;;127.78;89.85;;;;;;;9.40;100.00;99107.94;5099590;28;20019;-71
2024/02/26 08:12:00;;;;;;;68.00;44.45;;;;;;;9.26;100.00;99119.31;5110885;28;20088;-69
2024/02/26 08:14:27;;;;;;;66.63;38.90;;;;;;;9.49;100.00;99119.03;5109555;28;20026;-69
2024/02/26 08:16:52;;;;;;;52.30;33.30;;;;;;;9.30;100.00;99116.66;5092371;28;20035;-72
2024/02/26 08:19:18;;;;;;;59.03;36.33;;;;;;;9.41;100.00;99110.41;5107941;28;20054;-73
2024/02/26 08:21:44;;;;;;;53.03;34.00;;;;;;;9.30;100.00;99109.13;5106602;28;20420;-70
2024/02/26 08:24:09;;;;;;;57.20;32.72;;;;;;;9.55;100.00;99118.50;5112264;28;20476;-72
2024/02/26 08:26:35;;;;;;;50.80;33.78;;;;;;;9.77;100.00;99124.13;5111058;28;20035;-72
2024/02/26 08:29:00;;;;;;;53.28;34.33;;;;;;;9.71;100.00;99119.91;5110476;28;20070;-70
2024/02/26 08:31:27;;;;;;;57.83;34.75;;;;;;;9.88;100.00;99111.41;5090231;28;20023;-73
2024/02/26 08:33:52;;;;;;;53.00;35.05;;;;;;;10.10;100.00;99117.84;5106821;28;20106;-74
2024/02/26 08:36:17;;;;;;;54.17;33.42;;;;;;;10.19;100.00;99126.13;5108996;28;20066;-77
2024/02/26 08:38:43;;;;;;;65.13;48.05;;;;;;;10.21;100.00;99109.88;5101328;28;20023;-75
2024/02/26 08:41:09;;;;;;;56.25;33.88;;;;;;;10.27;100.00;99116.06;5106489;28;20031;-76
2024/02/26 08:43:34;;;;;;;54.90;31.30;;;;;;;10.28;100.00;99117.72;5091043;28;20023;-76
2024/02/26 08:46:00;;;;;;;42.08;30.25;;;;;;;10.15;100.00;99128.00;5102816;28;20067;-76
2024/02/26 08:48:25;;;;;;;44.55;29.33;;;;;;;10.12;100.00;99129.47;5108876;28;20476;-76
2024/02/26 08:50:51;;;;;;;44.92;27.98;;;;;;;10.32;100.00;99115.84;5082916;28;20570;-75
2024/02/26 08:53:16;;;;;;;48.75;28.50;;;;;;;10.19;100.00;99120.56;5110557;28;20032;-76
2024/02/26 08:55:42;;;;;;;45.30;28.33;;;;;;;10.46;100.00;99122.00;5103813;28;20486;-76
2024/02/26 08:58:07;;;;;;;41.45;27.00;;;;;;;10.71;100.00;99119.31;5084504;28;20047;-76
2024/02/26 09:00:33;;;;;;;51.03;27.80;;;;;;;10.96;100.00;99110.97;5075846;28;20028;-77
2024/02/26 09:02:58;;;;;;;46.13;26.10;;;;;;;10.86;100.00;99114.22;5102289;28;20035;-72
2024/02/26 09:05:23;;;;;;;48.85;26.40;;;;;;;10.68;100.00;99097.63;5103986;28;20480;-74
2024/02/26 09:07:51;;;;;;;42.08;25.35;;;;;;;10.98;100.00;99100.28;5097479;27;20043;-74
2024/02/26 09:10:17;;;;;;;40.90;25.90;;;;;;;11.16;100.00;99088.84;5083544;28;20031;-75
2024/02/26 09:12:42;;;;;;;49.90;26.35;;;;;;;11.34;100.00;99101.47;5082409;28;20264;-75
2024/02/26 09:15:08;;;;;;;41.65;24.50;;;;;;;11.48;100.00;99091.91;5092685;28;20030;-75
2024/02/26 09:17:34;;;;;;;38.63;25.27;;;;;;;11.36;100.00;99089.91;5076797;28;20023;-78
2024/02/26 09:19:59;;;;;;;47.47;30.02;;;;;;;11.56;100.00;99096.56;5072415;28;20054;-74
2024/02/26 09:22:25;;;;;;;44.78;26.13;;;;;;;11.73;100.00;99089.09;5101889;28;20689;-76
2024/02/26 09:24:52;;;;;;;38.97;25.95;;;;;;;11.66;100.00;99087.69;5097344;28;20356;-76
2024/02/26 09:27:17;;;;;;;52.88;26.40;;;;;;;11.91;100.00;99090.44;5096738;28;20020;-76
2024/02/26 09:29:43;;;;;;;43.75;26.58;;;;;;;11.79;100.00;99096.06;5093699;28;20027;-74
2024/02/26 09:32:08;;;;;;;48.50;26.55;;;;;;;11.85;100.00;99089.06;5090544;28;20048;-73
2024/02/26 09:34:34;;;;;;;60.63;25.60;;;;;;;11.76;100.00;99079.97;5089026;28;20515;-73
2024/02/26 09:37:00;;;;;;;45.80;25.00;;;;;;;11.89;100.00;99087.19;5068941;28;20047;-74
2024/02/26 09:39:27;;;;;;;38.42;24.55;;;;;;;12.09;100.00;99090.22;5097182;28;20016;-74
2024/02/26 09:41:53;;;;;;;31.83;22.20;;;;;;;12.33;100.00;99085.69;5102858;28;20024;-76
2024/02/26 09:44:22;;;;;;;34.17;22.88;;;;;;;12.13;100.00;99079.91;5093362;28;20030;-74
2024/02/26 09:46:49;;;;;;;36.08;21.88;;;;;;;11.91;100.00;99073.63;5093101;28;20059;-74
2024/02/26 09:49:16;;;;;;;32.00;21.75;;;;;;;12.11;100.00;99081.44;5107013;28;20016;-74
2024/02/26 09:51:41;;;;;;;31.17;20.90;;;;;;;12.30;100.00;99077.97;5106974;28;20062;-72
2024/02/26 09:54:09;;;;;;;45.60;29.30;;;;;;;12.33;100.00;99071.69;5082573;28;20491;-74
2024/02/26 09:56:36;;;;;;;47.55;32.40;;;;;;;12.47;100.00;99066.47;5101843;28;20030;-74
2024/02/26 09:59:10;;;;;;;50.42;35.35;;;;;;;12.44;100.00;99072.81;5074670;28;20044;-75
2024/02/26 10:01:38;;;;;;;41.75;25.67;;;;;;;12.42;100.00;99066.72;5081247;28;20424;-75
2024/02/26 10:04:04;;;;;;;38.83;25.30;;;;;;;12.65;100.00;99066.13;5095381;28;20052;-75
2024/02/26 10:06:30;;;;;;;33.83;24.40;;;;;;;12.72;100.00;99066.34;5100046;28;20047;-76
2024/02/26 10:08:58;;;;;;;36.17;23.00;;;;;;;12.85;100.00;99058.69;5095420;28;20508;-76
2024/02/26 10:11:24;;;;;;;34.47;22.08;;;;;;;12.01;100.00;99058.31;5074282;28;20089;-76
2024/02/26 10:13:49;;;;;;;41.53;24.60;;;;;;;11.94;100.00;99042.13;5098055;28;20047;-75
2024/02/26 10:16:16;;;;;;;55.83;28.52;;;;;;;12.26;100.00;99043.44;5083195;28;20019;-76
2024/02/26 10:18:49;;;;;;;39.33;22.58;;;;;;;12.52;100.00;99034.53;5097243;28;20032;-75
2024/02/26 10:21:19;;;;;;;40.05;25.45;;;;;;;12.54;100.00;99043.41;5102267;28;20034;-76
2024/02/26 10:23:46;;;;;;;34.33;22.42;;;;;;;12.30;100.00;99035.91;5102005;28;20058;-75
2024/02/26 10:26:12;;;;;;;38.63;22.90;;;;;;;12.07;100.00;99028.88;5077058;28;20067;-73
2024/02/26 10:28:39;;;;;;;35.97;21.98;;;;;;;12.32;100.00;99023.19;5082659;28;20430;-70
2024/02/26 10:31:05;;;;;;;58.65;22.60;;;;;;;12.74;100.00;99026.72;5101315;28;20420;-72
2024/02/26 10:33:35;;;;;;;33.40;20.40;;;;;;;13.09;100.00;99028.78;5098262;28;20023;-73
2024/02/26 10:36:01;;;;;;;31.73;20.95;;;;;;;13.29;99.60;99018.44;5107055;28;20055;-73
2024/02/26 10:38:26;;;;;;;34.92;21.27;;;;;;;13.61;98.37;99020.41;5107187;28;20040;-73
2024/02/26 10:40:52;;;;;;;42.70;21.85;;;;;;;13.78;96.84;99023.97;5107235;28;20035;-75
2024/02/26 10:43:18;;;;;;;29.05;18.08;;;;;;;13.79;95.08;99015.19;5088480;28;20043;-74
2024/02/26 10:45:44;;;;;;;29.88;19.05;;;;;;;13.69;92.81;99016.56;5097886;28;20023;-75
2024/02/26 10:48:14;;;;;;;31.15;20.98;;;;;;;13.75;93.53;99006.66;5107527;28;20046;-74
2024/02/26 10:50:39;;;;;;;33.33;21.17;;;;;;;13.94;92.34;99005.06;5108571;28;20046;-72
2024/02/26 10:53:16;;;;;;;30.98;18.88;;;;;;;14.22;90.79;99003.19;5103448;28;20023;-79
2024/02/26 10:55:42;;;;;;;26.90;19.17;;;;;;;14.32;90.96;98992.19;5095391;28;20106;-80
2024/02/26 10:58:09;;;;;;;37.03;22.83;;;;;;;14.46;90.89;99000.06;5086059;28;20428;-74
2024/02/26 11:00:36;;;;;;;29.48;19.83;;;;;;;14.13;91.36;98990.19;5107231;28;20031;-77
2024/02/26 11:03:05;;;;;;;34.08;20.88;;;;;;;14.14;92.97;98982.56;5102893;28;20110;-75
2024/02/26 11:05:33;;;;;;;34.63;21.60;;;;;;;14.30;91.56;98971.22;5104297;28;20035;-75
2024/02/26 11:08:00;;;;;;;49.42;30.80;;;;;;;14.50;89.90;98979.63;5090612;28;20035;-78
2024/02/26 11:10:29;;;;;;;30.23;19.33;;;;;;;14.06;88.93;98975.97;5099022;28;20023;-75